Flight Track Log - Related Links

Times and Time Zones

All times are in EDT time to prevent confusion due to time zone crossing. See the RPA3436 flight status page for this flight to view local times or setup timezone preferences in your user account.

Time Position Orientation Groundspeed Altitude Reporting Facility
EDT Latitude Longitude Course Direction KTS MPH feet Rate Location/Type
Wed 08:44:35 AM 32.8631 -80.0511 76° East 166 191 1,500  Level Jacksonville Center
Wed 08:45:35 AM 32.8744 -79.9964 76° East 151 174 3,500 2,600 Climbing Jacksonville Center
Wed 08:46:35 AM 32.9356 -79.9350 40° Northeast 154 177 6,700 3,300 Climbing Jacksonville Center
Wed 08:47:35 AM 33.0150 -79.9322 North 220 253 10,100 2,600 Climbing Jacksonville Center
Wed 08:48:35 AM 33.0981 -79.9122 11° North 266 306 11,900 1,900 Climbing Jacksonville Center
Wed 08:49:35 AM 33.1928 -79.8619 24° Northeast 331 381 13,900 2,150 Climbing Jacksonville Center
Wed 08:50:35 AM 33.2917 -79.8064 25° Northeast 360 414 16,200 2,050 Climbing Jacksonville Center
Wed 08:51:35 AM 33.3925 -79.7531 24° Northeast 379 436 18,000 1,850 Climbing Jacksonville Center
Wed 08:52:35 AM 33.4994 -79.6919 25° Northeast 405 466 19,900 1,800 Climbing Jacksonville Center
Wed 08:53:35 AM 33.6106 -79.6306 25° Northeast 416 479 21,600 1,600 Climbing Jacksonville Center
Wed 08:54:35 AM 33.7239 -79.5689 24° Northeast 432 497 23,100 1,400 Climbing Jacksonville Center
Wed 08:55:35 AM 33.8389 -79.5047 25° Northeast 444 511 24,400 1,300 Climbing Jacksonville Center
Wed 08:56:35 AM 33.9603 -79.4372 25° Northeast 458 527 25,700 1,550 Climbing Jacksonville Center
Wed 08:57:35 AM 34.0814 -79.3725 24° Northeast 452 520 27,500 1,660 Climbing Jacksonville Center
Wed 08:59:43 AM 34.3272 -79.2283 26° Northeast 493 567 30,900 1,548 Climbing Washington Center
Wed 09:00:41 AM 34.4419 -79.1628 25° Northeast 472 543 32,300 1,424 Climbing Washington Center
Wed 09:01:41 AM 34.5564 -79.0972 25° Northeast 453 521 33,700 1,240 Climbing Washington Center
Wed 09:02:42 AM 34.6711 -79.0314 25° Northeast 448 516 34,800 639 Climbing Washington Center
Wed 09:03:43 AM 34.7836 -78.9628 27° Northeast 448 516 35,000 99 Climbing Washington Center
Wed 09:04:43 AM 34.9044 -78.8969 24° Northeast 461 531 35,000  Level Washington Center
Wed 09:05:41 AM 35.0253 -78.8233 27° Northeast 472 543 35,000  Level Washington Center
Wed 09:06:41 AM 35.1419 -78.7569 25° Northeast 464 534 35,000  Level Washington Center
Wed 09:07:42 AM 35.2500 -78.6925 26° Northeast 449 517 35,000  Level Washington Center
Wed 09:08:43 AM 35.3644 -78.6256 25° Northeast 435 501 35,000  Level Washington Center
Wed 09:09:41 AM 35.4767 -78.5583 26° Northeast 442 509 35,000  Level Washington Center
Wed 09:10:42 AM 35.5889 -78.4911 26° Northeast 442 509 35,000  Level Washington Center
Wed 09:11:42 AM 35.6947 -78.4283 26° Northeast 464 534 35,000  Level Washington Center
Wed 09:12:42 AM 35.8069 -78.3633 25° Northeast 450 518 35,000 -1,041 Level Washington Center
Wed 09:13:43 AM 35.9189 -78.2978 25° Northeast 450 518 32,900 -2,269 Descending Washington Center
Wed 09:14:41 AM 36.0311 -78.2297 26° Northeast 450 518 30,500 -2,492 Descending Washington Center
Wed 09:15:41 AM 36.1472 -78.1592 26° Northeast 450 518 28,000 -2,430 Descending Washington Center
Wed 09:16:42 AM 36.2636 -78.0881 26° Northeast 450 518 25,600 -1,475 Descending Washington Center
Wed 09:17:43 AM 36.3714 -78.0219 26° Northeast 450 518 25,000 -303 Descending Washington Center
Wed 09:18:41 AM 36.4811 -77.9556 26° Northeast 440 506 25,000  Level Washington Center
Wed 09:19:42 AM 36.5931 -77.8867 26° Northeast 440 506 25,000 -347 Level Washington Center
Wed 09:20:42 AM 36.7028 -77.8172 27° Northeast 435 501 24,300 -1,350 Descending Washington Center
Wed 09:21:42 AM 36.8106 -77.7528 26° Northeast 435 501 22,300 -1,140 Descending Washington Center
Wed 09:22:43 AM 36.9158 -77.6883 26° Northeast 430 495 22,000 -149 Descending Washington Center
Wed 09:23:43 AM 37.0192 -77.6236 27° Northeast 424 488 22,000  Level Washington Center
Wed 09:24:41 AM 37.1225 -77.5586 27° Northeast 424 488 22,000  Level Washington Center
Wed 09:25:42 AM 37.2281 -77.4908 27° Northeast 419 482 22,000  Level Washington Center
Wed 09:26:43 AM 37.3333 -77.4281 25° Northeast 414 476 22,000  Level Washington Center
Wed 09:27:41 AM 37.4386 -77.3625 26° Northeast 414 476 22,000  Level Washington Center
Wed 09:28:41 AM 37.5456 -77.3128 20° North 408 470 22,000  Level Washington Center
Wed 09:29:41 AM 37.6564 -77.2889 10° North 408 470 22,000 -992 Level Washington Center
Wed 09:30:42 AM 37.7694 -77.2653 North 402 463 20,000 -2,016 Descending Washington Center
Wed 09:31:43 AM 37.8761 -77.2439 North 396 456 17,900 -2,033 Descending Washington Center
Wed 09:32:43 AM 37.9786 -77.2197 11° North 381 438 15,900 -2,034 Descending Washington Center
Wed 09:33:41 AM 38.0811 -77.2036 North 376 433 13,900 -2,017 Descending Washington Center
Wed 09:34:42 AM 38.1814 -77.1819 10° North 370 426 11,900 -1,918 Descending Washington Center
Wed 09:35:43 AM 38.2819 -77.1575 11° North 370 426 10,000 -1,059 Descending Washington Center
Wed 09:36:41 AM 38.3739 -77.1411 North 356 410 9,800 -958 Descending Washington Center
Wed 09:37:42 AM 38.4594 -77.1242 North 333 383 8,100 -1,574 Descending Washington Center
Wed 09:38:43 AM 38.5392 -77.1047 11° North 305 351 6,600 -1,736 Descending Washington Center
Wed 09:39:43 AM 38.6164 -77.0875 10° North 291 335 4,600 -2,136 Descending Washington Center
Wed 09:40:41 AM 38.6856 -77.0569 19° North 269 310 2,400 -1,292 Descending Washington Center
Wed 09:41:53 AM 38.7667 -77.0333 13° North 156 180 1,800 -500 Descending Potomac TRACON

Login

Don't have an account? Register now (free) for customized features, flight alerts, and more!